Nearby METAR Reports

 

KPBI - West Palm Beach, Florida, USA
Distance from station: NNE 9mi, 14km
Updated: Wed, 08-Jul-2020 9:53pm EDT
Thunderstorm, Mostly cloudy
Thunderstorm, Mostly cloudy
 Wind from WSW
Wind: WSW 3 mph , 6 km/h
Temperature: 84°F , 29°C
Heat Index: 90°F , 32°C
Dew Point: 73°F , 23°C
Humidity: 70%
Barometer: 29.96 inHg , 1014.6 hPa
Summary: Thunderstorm
Clouds: Mostly cloudy
Visibility: 10 miles , 16 km
Cloud details: Partly cloudy 3000 ft
Mostly cloudy 4900 ft
Mostly cloudy 10000 ft
2020/07/09 01:53 KPBI 090153Z 24003KT 10SM TS SCT030CB BKN049 BKN100 29/23 A2996 RMK AO2 LTG DSNT E AND SE RAE00 SLP143 OCNL LTGICCG SE TS SE MOV E CB DSNT NE-SE P0000 T02940233
KBCT - Boca Raton, Florida, USA
Distance from station: SSE 13mi, 21km
Updated: Wed, 08-Jul-2020 8:47pm EDT
NOT Current
Partly cloudy
Partly cloudy
 Wind from calm
Wind: Calm
Temperature: 86°F , 30°C
Heat Index: 97°F , 36°C
Dew Point: 77°F , 25°C
Humidity: 75%
Barometer: 29.94 inHg , 1013.9 hPa
Clouds: Partly cloudy
Visibility: 10 miles , 16 km
Cloud details: Partly cloudy 3000 ft
2020/07/09 00:47 KBCT 090047Z 00000KT 10SM SCT030 30/25 A2994
 
KPMP - Pompano Beach, Florida, USA
Distance from station: S 22mi, 36km
Updated: Wed, 08-Jul-2020 9:53pm EDT
Overcast
Overcast
 Wind from calm
Wind: Calm
Temperature: 82°F , 28°C
Heat Index: 90°F , 32°C
Dew Point: 77°F , 25°C
Humidity: 84%
Barometer: 29.95 inHg , 1014.2 hPa
Clouds: Overcast
Visibility: 10 miles , 16 km
Cloud details: Mostly cloudy 4300 ft
Overcast 5000 ft
2020/07/09 01:53 KPMP 090153Z AUTO 00000KT 10SM BKN043 OVC050 28/25 A2995 RMK AO2 LTG DSNT ALQDS SLP141 T02780250
KFXE - Ft Lauderd/Exec, Florida, USA
Distance from station: S 25mi, 41km
Updated: Wed, 08-Jul-2020 9:53pm EDT
Nearby thunderstorm, Mostly cloudy
Nearby thunderstorm, Mostly cloudy
 Wind from WSW
Wind: WSW 5 mph , 7 km/h
Temperature: 84°F , 29°C
Heat Index: 92°F , 33°C
Dew Point: 75°F , 24°C
Humidity: 74%
Barometer: 29.94 inHg , 1013.9 hPa
Summary: Nearby Thunderstorm
Clouds: Mostly cloudy
Visibility: 10 miles , 16 km
Cloud details: Mostly cloudy 4000 ft
2020/07/09 01:53 KFXE 090153Z 24004KT 10SM VCTS BKN040 29/24 A2994 RMK AO2 LTG DSNT NE AND S SLP142 T02940244
 
KFLL - Ft Lauderd/Holly, Florida, USA
Distance from station: S 35mi, 56km
Updated: Wed, 08-Jul-2020 9:53pm EDT
Mostly cloudy
Mostly cloudy
 Wind from SSW
Wind: SSW 5 mph , 7 km/h
Temperature: 86°F , 30°C
Heat Index: 95°F , 35°C
Dew Point: 75°F , 24°C
Humidity: 70%
Barometer: 29.94 inHg , 1013.9 hPa
Clouds: Mostly cloudy
Visibility: 10 miles , 16 km
Cloud details: Partly cloudy 4500 ft
Mostly cloudy 5500 ft
2020/07/09 01:53 KFLL 090153Z 21004KT 10SM SCT045 BKN055 30/24 A2994 RMK AO2 LTG DSNT SW SLP137 T03000244
KHWO - Hollywood, Florida, USA
Distance from station: S 39mi, 64km
Updated: Wed, 08-Jul-2020 9:53pm EDT
Nearby thunderstorm, Overcast
Nearby thunderstorm, Overcast
 Wind from SW
Wind: SW 6 mph , 9 km/h
Barometer: 29.96 inHg , 1014.6 hPa
Summary: Nearby Thunderstorm
Clouds: Overcast
Visibility: 10 miles , 16 km
Cloud details: Overcast 6000 ft
2020/07/09 01:53 KHWO 090153Z AUTO 22005KT 10SM VCTS OVC060 A2996 RMK AO2 SLP147 $
 
KSUA - Stuart/Witham, Florida, USA
Distance from station: N 43mi, 69km
Updated: Wed, 08-Jul-2020 9:55pm EDT
Clear
Clear
 Wind from calm
Wind: Calm
Temperature: 82°F , 28°C
Heat Index: 87°F , 31°C
Dew Point: 73°F , 23°C
Humidity: 74%
Barometer: 29.96 inHg , 1014.6 hPa
Clouds: Clear
Visibility: 10 miles , 16 km
2020/07/09 01:55 KSUA 090155Z AUTO 00000KT 10SM CLR 28/23 A2996 RMK AO2 LTG DSNT E AND SE
KOPF - Miami/Opa Locka, Florida, USA
Distance from station: S 46mi, 73km
Updated: Wed, 08-Jul-2020 9:53pm EDT
Thunderstorm, Overcast
Thunderstorm, Overcast
 Wind from WSW
Wind: WSW 16 mph , 26 km/h, Gust: 22 mph , 35 km/h
Temperature: 84°F , 29°C
Heat Index: 90°F , 32°C
Dew Point: 73°F , 23°C
Humidity: 70%
Barometer: 29.95 inHg , 1014.2 hPa
Summary: Thunderstorm
Clouds: Overcast
Visibility: 10 miles , 16 km
Cloud details: Mostly cloudy 6500 ft
Overcast 7500 ft
2020/07/09 01:53 KOPF 090153Z 25014G19KT 10SM TS BKN065 OVC075 29/23 A2995 RMK AO2 TSB53 SLP143 T02940228
 
KMIA - Miami, Florida, USA
Distance from station: S 54mi, 86km
Updated: Wed, 08-Jul-2020 9:53pm EDT
Thunderstorm, Mostly cloudy
Thunderstorm, Mostly cloudy
 Wind from SSW
Wind: SSW 5 mph , 7 km/h
Temperature: 88°F , 31°C
Heat Index: 98°F , 37°C
Dew Point: 75°F , 24°C
Humidity: 66%
Barometer: 29.95 inHg , 1014.2 hPa
Summary: Thunderstorm
Clouds: Mostly cloudy
Visibility: 10 miles , 16 km
Cloud details: Mostly cloudy 7000 ft
Mostly cloudy 25000 ft
2020/07/09 01:53 KMIA 090153Z 20004KT 10SM TS BKN070 BKN250 31/24 A2995 RMK AO2 TSB53 SLP143 T03060239
KOBE - Okeechobee Cty, Florida, USA
Distance from station: NW 64mi, 104km
Updated: Wed, 08-Jul-2020 9:55pm EDT
Clear
Clear
 Wind from calm
Wind: Calm
Temperature: 79°F , 26°C
Dew Point: 75°F , 24°C
Humidity: 89%
Barometer: 29.95 inHg , 1014.2 hPa
Clouds: Clear
Visibility: 10 miles , 16 km
2020/07/09 01:55 KOBE 090155Z AUTO 00000KT 10SM CLR 26/24 A2995 RMK AO2 LTG DSNT E AND SE
 
KFPR - Fort Pierce, Florida, USA
Distance from station: NNW 66mi, 106km
Updated: Wed, 08-Jul-2020 9:53pm EDT
Clear
Clear
 Wind from calm
Wind: Calm
Temperature: 81°F , 27°C
Heat Index: 89°F , 32°C
Dew Point: 79°F , 26°C
Humidity: 94%
Barometer: 29.95 inHg , 1014.2 hPa
Clouds: Clear
Visibility: 10 miles , 16 km
2020/07/09 01:53 KFPR 090153Z AUTO 00000KT 10SM CLR 27/26 A2995 RMK AO2 SLP140 T02670261
KTMB - Miami/Tamiami, Florida, USA
Distance from station: SSW 66mi, 106km
Updated: Wed, 08-Jul-2020 9:53pm EDT
Light rain, Overcast
Light rain, Overcast
 Wind from NW
Wind: NW 6 mph , 9 km/h
Temperature: 82°F , 28°C
Heat Index: 91°F , 33°C
Dew Point: 79°F , 26°C
Humidity: 89%
Barometer: 29.95 inHg , 1014.2 hPa
Summary: Light rain
Clouds: Overcast
Visibility: 8 miles , 13 km
Cloud details: Few Clouds 4100 ft
Mostly cloudy 5000 ft
Overcast 7500 ft
2020/07/09 01:53 KTMB 090153Z 31005KT 8SM -RA FEW041 BKN050 OVC075 28/26 A2995 RMK AO2 LTG DSNT NE RAB51 SLP141 P0000 T02830256
 
KVRB - Vero Beach, Florida, USA
Distance from station: NNW 76mi, 123km
Updated: Wed, 08-Jul-2020 9:53pm EDT
Clear
Clear
 Wind from SSW
Wind: SSW 3 mph , 6 km/h
Temperature: 81°F , 27°C
Heat Index: 87°F , 31°C
Dew Point: 75°F , 24°C
Humidity: 84%
Barometer: 29.95 inHg , 1014.2 hPa
Clouds: Clear
Visibility: 10 miles , 16 km
2020/07/09 01:53 KVRB 090153Z AUTO 21003KT 10SM CLR 27/24 A2995 RMK AO2 SLP140 T02720239
KHST - Homestead Afb, Florida, USA
Distance from station: S 77mi, 124km
Updated: Wed, 08-Jul-2020 9:56pm EDT
Clear
Clear
 Wind from S
Wind: S 3 mph , 6 km/h
Temperature: 81°F , 27°C
Heat Index: 88°F , 31°C
Dew Point: 77°F , 25°C
Humidity: 89%
Barometer: 29.95 inHg , 1014.2 hPa
Clouds: Clear
Visibility: 10 miles , 16 km
2020/07/09 01:56 KHST 090156Z AUTO 19003KT 10SM CLR 27/25 A2995 RMK AO2 LTG DSNT N SLP145 T02730251
 
KIMM - Immokalee, Florida, USA
Distance from station: W 77mi, 124km
Updated: Wed, 08-Jul-2020 9:55pm EDT
Few Clouds
Few Clouds
 Wind from WNW
Wind: WNW 5 mph , 7 km/h
Temperature: 82°F , 28°C
Heat Index: 89°F , 32°C
Dew Point: 75°F , 24°C
Humidity: 79%
Barometer: 29.96 inHg , 1014.6 hPa
Clouds: Few Clouds
Visibility: 10 miles , 16 km
Cloud details: Few Clouds 6000 ft
Few Clouds 7000 ft
2020/07/09 01:55 KIMM 090155Z AUTO 29004KT 10SM FEW060 FEW070 28/24 A2996 RMK AO2
MYGF - Freeport Intl A, Bahamas
Distance from station: E 90mi, 145km
Updated: Wed, 08-Jul-2020 8:00pm EDT
NOT Current
Mostly cloudy
Mostly cloudy
 Wind from S
Wind: S 6 mph , 9 km/h
Temperature: 88°F , 31°C
Heat Index: 106°F , 41°C
Dew Point: 81°F , 27°C
Humidity: 79%
Barometer: 29.94 inHg , 1013.9 hPa
Clouds: Mostly cloudy
Visibility: 6 miles , 10 km
Cloud details: Few Clouds 1500 ft
Mostly cloudy 25000 ft
2020/07/09 00:00 MYGF 090000Z 19005KT 9999 FEW015CB BKN250 31/27 A2994 RMK CB DSNT N/NE
 
KSEF - Sebring, Florida, USA
Distance from station: NW 95mi, 153km
Updated: Wed, 08-Jul-2020 9:55pm EDT
Clear
Clear
 Wind from W
Wind: W 7 mph , 11 km/h
Temperature: 81°F , 27°C
Heat Index: 85°F , 29°C
Dew Point: 72°F , 22°C
Humidity: 74%
Barometer: 29.96 inHg , 1014.6 hPa
Clouds: Clear
Visibility: 10 miles , 16 km
2020/07/09 01:55 KSEF 090155Z AUTO 26006KT 10SM CLR 27/22 A2996 RMK AO2 T02740225
KRSW - Fort Myers, Florida, USA
Distance from station: W 98mi, 158km
Updated: Wed, 08-Jul-2020 9:53pm EDT
Clear
Clear
 Wind from WNW
Wind: WNW 5 mph , 7 km/h
Temperature: 84°F , 29°C
Heat Index: 92°F , 33°C
Dew Point: 75°F , 24°C
Humidity: 74%
Barometer: 29.97 inHg , 1014.9 hPa
Clouds: Clear
Visibility: 10 miles , 16 km
2020/07/09 01:53 KRSW 090153Z 30004KT 10SM CLR 29/24 A2997 RMK AO2 SLP145 T02890239